Time;durP1;ratioP1;P1;durP2;ratioP2;P2;SDS_P1;SDS_P2;PMS_P1;PMS_P2;Temp;Humidity;BMP_temperature;BMP_pressure;BME280_temperature;BME280_humidity;BME280_pressure;Samples;Min_cycle;Max_cycle;Signal;HPM_P1;HPM_P2
2021/07/13 00:01:01;;;;;;;5.07;3.00;;;;;;;;;;3548877;40;20405;-76
2021/07/13 00:03:28;;;;;;;4.53;2.80;;;;;;;;;;3546704;40;20417;-77
2021/07/13 00:05:56;;;;;;;3.05;2.60;;;;;;;;;;3547539;40;20515;-76
2021/07/13 00:08:23;;;;;;;2.85;2.38;;;;;;;;;;3556249;40;20361;-76
2021/07/13 00:10:49;;;;;;;2.72;2.42;;;;;;;;;;3557695;40;20356;-79
2021/07/13 00:13:15;;;;;;;5.90;2.85;;;;;;;;;;3547744;40;20355;-77
2021/07/13 00:15:42;;;;;;;4.28;3.95;;;;;;;;;;3547291;40;20702;-77
2021/07/13 00:18:09;;;;;;;4.17;3.80;;;;;;;;;;3547492;40;20355;-77
2021/07/13 00:20:35;;;;;;;4.72;4.22;;;;;;;;;;3547746;40;20383;-77
2021/07/13 00:23:03;;;;;;;6.15;4.57;;;;;;;;;;3547773;40;20375;-78
2021/07/13 00:25:30;;;;;;;5.30;4.03;;;;;;;;;;3547353;40;20362;-78
2021/07/13 00:27:56;;;;;;;4.50;4.10;;;;;;;;;;3547275;40;20394;-78
2021/07/13 00:30:23;;;;;;;5.43;4.60;;;;;;;;;;3539542;40;20437;-80
2021/07/13 00:32:50;;;;;;;6.38;4.60;;;;;;;;;;3539832;40;20360;-76
2021/07/13 00:35:16;;;;;;;5.93;5.32;;;;;;;;;;3536866;40;20492;-77
2021/07/13 00:37:43;;;;;;;4.97;4.33;;;;;;;;;;3537309;40;20364;-76
2021/07/13 00:40:12;;;;;;;4.25;3.90;;;;;;;;;;3537009;40;20375;-75
2021/07/13 00:42:38;;;;;;;6.43;4.03;;;;;;;;;;3537173;40;20380;-76
2021/07/13 00:45:05;;;;;;;4.68;3.63;;;;;;;;;;3537214;40;20373;-77
2021/07/13 00:47:31;;;;;;;3.35;3.08;;;;;;;;;;3538543;40;20360;-78
2021/07/13 00:49:59;;;;;;;3.70;3.40;;;;;;;;;;3530476;40;20471;-77
2021/07/13 00:52:26;;;;;;;3.90;3.47;;;;;;;;;;3538023;40;20837;-77
2021/07/13 00:54:52;;;;;;;3.45;3.15;;;;;;;;;;3539743;40;20393;-77
2021/07/13 00:57:20;;;;;;;3.78;3.38;;;;;;;;;;3538635;40;20753;-78
2021/07/13 00:59:46;;;;;;;4.37;3.97;;;;;;;;;;3540553;40;20384;-75
2021/07/13 01:02:14;;;;;;;5.25;4.75;;;;;;;;;;3580085;23;20539;-66
2021/07/13 01:04:42;;;;;;;4.93;4.40;;;;;;;;;;3537951;40;20887;-66
2021/07/13 01:07:10;;;;;;;4.65;4.25;;;;;;;;;;3547022;40;20377;-66
2021/07/13 01:09:40;;;;;;;5.88;4.88;;;;;;;;;;3546369;40;20419;-66
2021/07/13 01:12:09;;;;;;;5.17;4.40;;;;;;;;;;3547103;40;20401;-66
2021/07/13 01:14:40;;;;;;;5.85;5.25;;;;;;;;;;3543856;40;20465;-66
2021/07/13 01:17:08;;;;;;;5.95;5.40;;;;;;;;;;3543066;40;20401;-66
2021/07/13 01:19:44;;;;;;;9.68;6.13;;;;;;;;;;3540561;40;20422;-65
2021/07/13 01:22:10;;;;;;;6.60;5.97;;;;;;;;;;3543833;40;20428;-66
2021/07/13 01:24:42;;;;;;;7.18;5.95;;;;;;;;;;3547212;40;20362;-65
2021/07/13 01:27:16;;;;;;;5.70;5.20;;;;;;;;;;3543478;40;20448;-67
2021/07/13 01:29:46;;;;;;;6.82;5.63;;;;;;;;;;3540814;40;20891;-66
2021/07/13 01:32:15;;;;;;;4.28;3.95;;;;;;;;;;3543380;40;20407;-67
2021/07/13 01:34:45;;;;;;;5.78;5.00;;;;;;;;;;3547083;40;20773;-66
2021/07/13 01:37:12;;;;;;;7.22;5.38;;;;;;;;;;3532627;40;20399;-66
2021/07/13 01:39:39;;;;;;;4.30;3.90;;;;;;;;;;3545428;40;20806;-66
2021/07/13 01:42:07;;;;;;;4.23;3.77;;;;;;;;;;3537613;40;20798;-66
2021/07/13 01:44:33;;;;;;;4.50;4.10;;;;;;;;;;3549697;40;20385;-66
2021/07/13 01:47:01;;;;;;;4.60;4.28;;;;;;;;;;3546843;40;20792;-66
2021/07/13 01:49:28;;;;;;;4.60;4.20;;;;;;;;;;3550745;40;20656;-66
2021/07/13 01:51:54;;;;;;;4.47;3.50;;;;;;;;;;3545593;40;20391;-66
2021/07/13 01:54:22;;;;;;;5.85;4.55;;;;;;;;;;3549824;40;20381;-66
2021/07/13 01:56:50;;;;;;;6.40;5.80;;;;;;;;;;3541128;40;20399;-65
2021/07/13 01:59:18;;;;;;;6.40;5.80;;;;;;;;;;3532967;40;20726;-66
2021/07/13 02:01:45;;;;;;;6.13;5.53;;;;;;;;;;3547847;40;20381;-66
2021/07/13 02:04:13;;;;;;;5.70;5.00;;;;;;;;;;3553737;40;20407;-66
2021/07/13 02:06:41;;;;;;;5.40;4.90;;;;;;;;;;3555118;40;20478;-66
2021/07/13 02:09:09;;;;;;;4.30;3.90;;;;;;;;;;3551381;40;20400;-65
2021/07/13 02:11:35;;;;;;;4.60;4.00;;;;;;;;;;3556743;40;20757;-66
2021/07/13 02:14:01;;;;;;;4.95;4.32;;;;;;;;;;3540424;40;20493;-66
2021/07/13 02:16:27;;;;;;;5.60;4.10;;;;;;;;;;3556894;40;20387;-65
2021/07/13 02:18:54;;;;;;;5.10;4.10;;;;;;;;;;3559545;40;20514;-66
2021/07/13 02:21:22;;;;;;;4.00;3.40;;;;;;;;;;3542981;40;20726;-66
2021/07/13 02:23:48;;;;;;;3.15;2.95;;;;;;;;;;3541529;40;20427;-66
2021/07/13 02:26:16;;;;;;;3.50;3.13;;;;;;;;;;3551440;40;20711;-66
2021/07/13 02:28:44;;;;;;;3.92;3.63;;;;;;;;;;3553471;40;20384;-66
2021/07/13 02:31:12;;;;;;;4.10;3.72;;;;;;;;;;3551700;40;20384;-67
2021/07/13 02:33:41;;;;;;;5.15;4.68;;;;;;;;;;3548852;40;20381;-67
2021/07/13 02:36:11;;;;;;;4.50;4.07;;;;;;;;;;3552908;40;20632;-66
2021/07/13 02:38:40;;;;;;;4.40;3.35;;;;;;;;;;3552345;40;20744;-66
2021/07/13 02:41:06;;;;;;;3.70;3.15;;;;;;;;;;3555591;40;20397;-66
2021/07/13 02:43:32;;;;;;;3.70;3.40;;;;;;;;;;3551941;40;20483;-66
2021/07/13 02:45:59;;;;;;;3.10;2.90;;;;;;;;;;3551429;40;20394;-66
2021/07/13 02:48:26;;;;;;;3.22;3.00;;;;;;;;;;3553809;40;20380;-68
2021/07/13 02:50:52;;;;;;;7.57;4.20;;;;;;;;;;3556437;40;20379;-68
2021/07/13 02:53:19;;;;;;;4.28;3.70;;;;;;;;;;3550435;40;20425;-67
2021/07/13 02:55:47;;;;;;;7.00;4.63;;;;;;;;;;3556478;40;20403;-69
2021/07/13 02:58:14;;;;;;;4.88;4.30;;;;;;;;;;3554289;40;20470;-68
2021/07/13 03:00:40;;;;;;;4.80;4.40;;;;;;;;;;3552728;40;20387;-67
2021/07/13 03:03:07;;;;;;;6.05;4.45;;;;;;;;;;3552337;40;20690;-66
2021/07/13 03:05:34;;;;;;;4.87;4.07;;;;;;;;;;3543493;40;20397;-66
2021/07/13 03:08:01;;;;;;;5.77;4.00;;;;;;;;;;3550433;40;20465;-66
2021/07/13 03:10:29;;;;;;;4.72;3.25;;;;;;;;;;3547585;40;20399;-67
2021/07/13 03:12:57;;;;;;;3.30;3.00;;;;;;;;;;3541983;40;20414;-67
2021/07/13 03:15:25;;;;;;;3.33;3.03;;;;;;;;;;3544460;40;20788;-66
2021/07/13 03:17:52;;;;;;;4.63;3.60;;;;;;;;;;3546530;40;20471;-66
2021/07/13 03:20:18;;;;;;;4.55;3.63;;;;;;;;;;3543447;40;20376;-66
2021/07/13 03:22:46;;;;;;;6.10;4.63;;;;;;;;;;3543856;40;20654;-66
2021/07/13 03:25:13;;;;;;;4.00;3.70;;;;;;;;;;3549899;40;20388;-66
2021/07/13 03:27:40;;;;;;;3.05;2.75;;;;;;;;;;3549305;40;20400;-67
2021/07/13 03:30:09;;;;;;;4.15;3.13;;;;;;;;;;3549338;40;20403;-67
2021/07/13 03:32:35;;;;;;;5.03;3.13;;;;;;;;;;3544790;40;20383;-66
2021/07/13 03:35:03;;;;;;;3.75;2.60;;;;;;;;;;3541104;40;20776;-66
2021/07/13 03:37:29;;;;;;;4.25;2.92;;;;;;;;;;3546264;40;20465;-66
2021/07/13 03:39:56;;;;;;;4.72;2.90;;;;;;;;;;3544431;40;20387;-66
2021/07/13 03:42:23;;;;;;;3.38;2.75;;;;;;;;;;3550747;40;20682;-67
2021/07/13 03:44:50;;;;;;;4.53;2.63;;;;;;;;;;3550430;40;20419;-66
2021/07/13 03:47:19;;;;;;;3.80;2.80;;;;;;;;;;3543961;40;20372;-67
2021/07/13 03:49:47;;;;;;;3.03;2.60;;;;;;;;;;3547796;40;20385;-66
2021/07/13 03:52:14;;;;;;;3.00;2.40;;;;;;;;;;3547671;40;20392;-66
2021/07/13 03:54:40;;;;;;;3.10;2.33;;;;;;;;;;3547899;40;20456;-66
2021/07/13 03:57:07;;;;;;;4.75;3.08;;;;;;;;;;3544674;40;20738;-67
2021/07/13 03:59:33;;;;;;;4.50;2.40;;;;;;;;;;3545594;40;20370;-66
2021/07/13 04:01:59;;;;;;;3.08;2.55;;;;;;;;;;3540267;40;20409;-66
2021/07/13 04:04:27;;;;;;;3.80;2.27;;;;;;;;;;3544538;40;20512;-66
2021/07/13 04:06:53;;;;;;;4.70;2.50;;;;;;;;;;3547408;40;20396;-66
2021/07/13 04:09:19;;;;;;;5.05;2.08;;;;;;;;;;3549551;40;20408;-66
2021/07/13 04:11:45;;;;;;;2.33;2.10;;;;;;;;;;3539780;40;20723;-66
2021/07/13 04:16:43;;;;;;;4.15;2.70;;;;;;;;;;3574250;40;20443;-68
2021/07/13 04:19:11;;;;;;;6.55;3.35;;;;;;;;;;3579021;40;20508;-66
2021/07/13 04:21:39;;;;;;;12.35;4.30;;;;;;;;;;3582286;40;20387;-72
2021/07/13 04:24:05;;;;;;;5.90;3.38;;;;;;;;;;3577291;40;20502;-72
2021/07/13 04:26:31;;;;;;;5.35;2.90;;;;;;;;;;3568355;40;20395;-72
2021/07/13 04:28:57;;;;;;;4.78;2.90;;;;;;;;;;3577298;40;20414;-72
2021/07/13 04:31:23;;;;;;;4.45;2.70;;;;;;;;;;3577368;40;20790;-71
2021/07/13 04:33:50;;;;;;;4.80;2.97;;;;;;;;;;3577049;40;20384;-72
2021/07/13 04:36:16;;;;;;;3.67;2.60;;;29.90;88.30;;;;;;3577527;40;20376;-71
2021/07/13 04:38:43;;;;;;;4.18;2.72;;;;;;;;;;3559458;40;20672;-71
2021/07/13 04:41:09;;;;;;;3.72;2.58;;;;;;;;;;3554312;40;20664;-72
2021/07/13 04:43:36;;;;;;;6.32;2.72;;;;;;;;;;3567783;40;20428;-72
2021/07/13 04:46:02;;;;;;;2.70;2.25;;;;;;;;;;3577398;40;20424;-72
2021/07/13 04:48:28;;;;;;;5.25;3.00;;;;;;;;;;3577789;40;20773;-70
2021/07/13 04:50:54;;;;;;;5.67;3.10;;;;;;;;;;3583735;40;20411;-72
2021/07/13 04:53:23;;;;;;;9.32;3.78;;;;;;;;;;3567785;40;20408;-72
2021/07/13 04:55:51;;;;;;;7.75;5.07;;;;;;;;;;3569042;40;20446;-71
2021/07/13 04:58:17;;;;;;;8.68;4.80;;;;;;;;;;3577256;40;20473;-71
2021/07/13 05:00:43;;;;;;;9.32;4.72;;;;;;;;;;3567403;40;20645;-71
2021/07/13 05:03:09;;;;;;;6.90;4.85;;;;;;;;;;3576705;40;20501;-71
2021/07/13 05:05:35;;;;;;;8.20;5.07;;;;;;;;;;3577026;40;20391;-71
2021/07/13 05:08:01;;;;;;;6.95;4.90;;;;;;;;;;3576723;40;20379;-72
2021/07/13 05:10:28;;;;;;;7.28;4.47;;;;;;;;;;3576925;40;20388;-72
2021/07/13 05:12:55;;;;;;;9.30;5.72;;;;;;;;;;3576419;40;20415;-72
2021/07/13 05:15:21;;;;;;;8.97;5.73;;;;;;;;;;3577887;40;20408;-72
2021/07/13 05:17:48;;;;;;;7.20;4.65;;;;;;;;;;3567655;40;20372;-72
2021/07/13 05:20:14;;;;;;;7.28;5.18;;;;;;;;;;3577102;40;20420;-72
2021/07/13 05:22:41;;;;;;;6.38;4.28;;;;;;;;;;3579795;40;20388;-72
2021/07/13 05:25:09;;;;;;;5.03;3.95;;;;;;;;;;3567132;40;20751;-72
2021/07/13 05:27:37;;;;;;;6.20;4.28;;;;;;;;;;3576348;40;20942;-72
2021/07/13 05:30:05;;;;;;;5.18;4.18;;;;;;;;;;3576197;40;20765;-72
2021/07/13 05:32:31;;;;;;;4.40;3.90;;;;;;;;;;3571483;40;20401;-71
2021/07/13 05:34:58;;;;;;;4.65;3.60;;;;;;;;;;3576511;40;20641;-72
2021/07/13 05:37:24;;;;;;;4.78;3.90;;;;;;;;;;3580399;40;20378;-73
2021/07/13 05:39:50;;;;;;;4.10;2.78;;;;;;;;;;3572456;40;20459;-74
2021/07/13 05:42:16;;;;;;;5.10;3.35;;;;;;;;;;3580205;40;20382;-73
2021/07/13 05:44:42;;;;;;;3.70;3.30;;;;;;;;;;3581584;40;20371;-72
2021/07/13 05:47:10;;;;;;;4.30;2.50;;;;;;;;;;3583451;40;20382;-72
2021/07/13 05:49:38;;;;;;;3.50;2.78;;;;;;;;;;3579146;40;20452;-72
2021/07/13 05:52:04;;;;;;;3.40;3.00;;;;;;;;;;3573326;40;20396;-71
2021/07/13 05:54:30;;;;;;;3.97;3.20;;;;;;;;;;3566191;40;20401;-73
2021/07/13 05:56:56;;;;;;;4.20;3.22;;;;;;;;;;3583608;40;20379;-72
2021/07/13 05:59:23;;;;;;;7.90;5.70;;;;;;;;;;3562202;40;20848;-72
2021/07/13 06:01:49;;;;;;;10.37;6.93;;;;;;;;;;3576697;40;20498;-73
2021/07/13 06:04:16;;;;;;;6.50;4.93;;;;;;;;;;3577293;40;20368;-73
2021/07/13 06:06:42;;;;;;;8.75;6.07;;;;;;;;;;3581378;40;20399;-72
2021/07/13 06:09:08;;;;;;;5.30;3.22;;;;;;;;;;3581982;40;20384;-72
2021/07/13 06:11:35;;;;;;;3.13;2.70;;;;;;;;;;3571930;40;20543;-74
2021/07/13 06:14:01;;;;;;;4.47;2.90;;;;;;;;;;3577242;40;20875;-72
2021/07/13 06:16:27;;;;;;;5.22;3.20;;;;;;;;;;3577057;40;20407;-73
2021/07/13 06:18:53;;;;;;;4.45;2.70;;;;;;;;;;3577015;40;20394;-73
2021/07/13 06:21:21;;;;;;;5.22;3.20;;;;;;;;;;3583578;40;20363;-73
2021/07/13 06:23:47;;;;;;;3.00;2.40;;;;;;;;;;3585522;40;20711;-73
2021/07/13 06:26:13;;;;;;;3.65;2.33;;;;;;;;;;3579584;40;20469;-72
2021/07/13 06:28:39;;;;;;;3.38;2.20;;;;;;;;;;3576804;40;20372;-73
2021/07/13 06:31:05;;;;;;;2.90;2.00;;;;;;;;;;3576995;40;20624;-73
2021/07/13 06:33:32;;;;;;;2.70;1.70;;;;;;;;;;3576594;40;20383;-72
2021/07/13 06:35:58;;;;;;;3.10;1.17;;;;;;;;;;3576988;40;20375;-72
2021/07/13 06:38:25;;;;;;;2.10;1.00;;;;;;;;;;3583947;40;20394;-72
2021/07/13 06:40:51;;;;;;;2.95;0.70;;;;;;;;;;3581316;40;20755;-71
2021/07/13 06:43:17;;;;;;;0.70;0.35;;;;;;;;;;3579197;40;20661;-72
2021/07/13 06:45:44;;;;;;;0.30;0.23;;;;;;;;;;3576690;40;20380;-72
2021/07/13 06:48:10;;;;;;;0.38;0.20;;;;;;;;;;3565909;40;20398;-72
2021/07/13 06:50:36;;;;;;;1.08;0.32;;;;;;;;;;3578463;40;20628;-72
2021/07/13 06:53:02;;;;;;;1.08;0.10;;;;;;;;;;3581305;40;20435;-72
2021/07/13 06:55:30;;;;;;;0.30;0.13;;;;;;;;;;3567224;40;20400;-72
2021/07/13 06:57:56;;;;;;;1.17;0.15;;;;;;;;;;3576912;40;20765;-72
2021/07/13 07:00:22;;;;;;;1.70;0.10;;;;;;;;;;3584258;40;20414;-72
2021/07/13 07:02:49;;;;;;;0.70;0.10;;;;;;;;;;3583090;40;20816;-72
2021/07/13 07:05:15;;;;;;;0.93;0.17;;;;;;;;;;3576821;40;20446;-72
2021/07/13 07:07:45;;;;;;;1.17;0.10;;;;;;;;;;3574145;40;20404;-72
2021/07/13 07:10:12;;;;;;;0.90;0.20;;;;;;;;;;3576827;40;20433;-72
2021/07/13 07:12:39;;;;;;;1.02;0.20;;;;;;;;;;3573127;40;20400;-72
2021/07/13 07:15:06;;;;;;;0.43;0.10;;;;;;;;;;3576415;40;21447;-71
2021/07/13 07:17:32;;;;;;;0.50;0.20;;;;;;;;;;3576769;40;20457;-72
2021/07/13 07:20:01;;;;;;;0.57;0.30;;;;;;;;;;3576689;40;20364;-72
2021/07/13 07:22:27;;;;;;;0.80;0.20;;;;;;;;;;3567320;40;20400;-72
2021/07/13 07:24:53;;;;;;;0.90;0.10;;;;;;;;;;3576347;40;20431;-72
2021/07/13 07:27:19;;;;;;;0.40;0.10;;;;;;;;;;3581077;40;20371;-72
2021/07/13 07:29:47;;;;;;;0.47;0.10;;;;;;;;;;3576463;40;20876;-71
2021/07/13 07:32:13;;;;;;;1.38;0.08;;;;;;;;;;3580189;40;20394;-71
2021/07/13 07:34:39;;;;;;;0.40;0.10;;;;;;;;;;3579657;40;20368;-72
2021/07/13 07:37:05;;;;;;;0.65;0.20;;;;;;;;;;3567235;40;20398;-71
2021/07/13 07:39:31;;;;;;;0.27;0.10;;;;;;;;;;3576310;40;20419;-72
2021/07/13 07:41:57;;;;;;;1.63;0.10;;;;;;;;;;3584807;40;20403;-71
2021/07/13 07:44:24;;;;;;;1.08;0.15;;;;;;;;;;3586277;40;20366;-72
2021/07/13 07:46:51;;;;;;;1.00;0.17;;;;;;;;;;3570013;40;20391;-72
2021/07/13 07:49:18;;;;;;;0.50;0.10;;;;;;;;;;3582266;40;20445;-72
2021/07/13 07:51:44;;;;;;;0.90;0.20;;;;;;;;;;3573872;40;20779;-71
2021/07/13 07:54:11;;;;;;;1.83;0.30;;;;;;;;;;3579583;40;20365;-72
2021/07/13 07:56:37;;;;;;;0.85;0.20;;;;;;;;;;3586234;40;20378;-71
2021/07/13 07:59:04;;;;;;;1.30;0.10;;;;;;;;;;3586099;40;20384;-72
2021/07/13 08:01:30;;;;;;;3.20;0.20;;;;;;;;;;3586117;40;20483;-73
2021/07/13 08:03:58;;;;;;;2.00;0.20;;;;;;;;;;3584787;40;20733;-72
2021/07/13 08:06:24;;;;;;;1.35;0.20;;;;;;;;;;3566807;40;20657;-72
2021/07/13 08:08:50;;;;;;;0.57;0.10;;;;;;;;;;3576518;40;20380;-72
2021/07/13 08:11:16;;;;;;;0.63;0.15;;;;;;;;;;3582798;40;20368;-73
2021/07/13 08:13:43;;;;;;;0.30;0.10;;;;;;;;;;3581743;40;20378;-72
2021/07/13 08:16:09;;;;;;;0.40;0.20;;;;;;;;;;3578810;40;20410;-72
2021/07/13 08:18:35;;;;;;;1.50;0.10;;;;;;;;;;3576158;40;20452;-72
2021/07/13 08:21:03;;;;;;;0.90;0.10;;;;;;;;;;3581296;40;20360;-72
2021/07/13 08:23:29;;;;;;;1.20;0.20;;;;;;;;;;3584985;40;20449;-72
2021/07/13 08:25:55;;;;;;;1.10;0.25;;;;;;;;;;3580649;40;20379;-71
2021/07/13 08:28:21;;;;;;;0.57;0.20;;;;;;;;;;3579371;40;20422;-72
2021/07/13 08:30:48;;;;;;;0.70;0.10;;;;;;;;;;3587786;40;20426;-73
2021/07/13 08:33:15;;;;;;;0.38;0.13;;;;;;;;;;3579684;40;20365;-72
2021/07/13 08:35:41;;;;;;;0.50;0.10;;;;;;;;;;3577743;40;20388;-73
2021/07/13 08:38:08;;;;;;;0.47;0.10;;;;;;;;;;3577782;40;20749;-71
2021/07/13 08:40:35;;;;;;;0.70;0.10;;;;;;;;;;3575149;40;20457;-72
2021/07/13 08:43:01;;;;;;;1.30;0.10;;;;;;;;;;3574561;40;20396;-72
2021/07/13 08:45:27;;;;;;;0.60;0.10;;;;;;;;;;3578263;40;20396;-73
2021/07/13 08:47:54;;;;;;;0.90;0.10;;;;;;;;;;3578267;40;20494;-73
2021/07/13 08:50:21;;;;;;;1.40;0.10;;;;;;;;;;3577503;40;20385;-72
2021/07/13 08:52:48;;;;;;;0.20;0.10;;;;;;;;;;3577579;40;20404;-72
2021/07/13 08:55:16;;;;;;;1.17;0.10;;;;;;;;;;3577819;40;20439;-72
2021/07/13 08:57:43;;;;;;;1.30;0.20;;;;;;;;;;3568067;40;20431;-72
2021/07/13 09:00:10;;;;;;;0.80;0.10;;;;;;;;;;3577405;40;20376;-72
2021/07/13 09:02:36;;;;;;;0.70;0.20;;;;;;;;;;3577989;40;20395;-72
2021/07/13 09:05:03;;;;;;;1.20;0.40;;;;;;;;;;3582505;40;20386;-72
2021/07/13 09:07:30;;;;;;;0.98;0.63;;;;;;;;;;3579472;40;20432;-72
2021/07/13 09:10:02;;;;;;;1.10;0.50;;;;;;;;;;3577167;40;20405;-72
2021/07/13 09:12:31;;;;;;;0.90;0.20;;;;;;;;;;3579009;40;20365;-72
2021/07/13 09:14:57;;;;;;;0.60;0.10;;;;;;;;;;3582717;40;20489;-72
2021/07/13 09:17:31;;;;;;;1.40;0.30;;;;;;;;;;3578457;40;20364;-73
2021/07/13 09:19:58;;;;;;;0.80;0.10;;;;;;;;;;3571684;40;20408;-73
2021/07/13 09:22:24;;;;;;;0.30;0.10;;;;;;;;;;3577272;40;20395;-73
2021/07/13 09:24:50;;;;;;;1.70;0.40;;;;;;;;;;3586535;40;20374;-72
2021/07/13 09:27:17;;;;;;;1.30;0.10;;;;;;;;;;3573592;40;20769;-73
2021/07/13 09:29:48;;;;;;;0.68;0.10;;;;;;;;;;3575007;40;20394;-72
2021/07/13 09:32:25;;;;;;;0.30;0.10;;;;;;;;;;3577334;40;20454;-73
2021/07/13 09:34:51;;;;;;;1.10;0.10;;;;;;;;;;3577908;40;20752;-73
2021/07/13 09:37:22;;;;;;;0.98;0.25;;;;;;;;;;3583582;40;20408;-70
2021/07/13 09:39:58;;;;;;;0.20;0.10;;;;;;;;;;3584097;40;20413;-72
2021/07/13 09:42:25;;;;;;;0.80;0.20;;;;;;;;;;3575071;40;20379;-72
2021/07/13 09:44:53;;;;;;;0.80;0.10;;;;;;;;;;3580689;40;20376;-70
2021/07/13 09:47:29;;;;;;;0.43;0.10;;;;;;;;;;3587398;40;20803;-70
2021/07/13 09:49:55;;;;;;;1.40;0.10;;;;;;;;;;3580818;40;20766;-71
2021/07/13 09:52:25;;;;;;;0.80;0.10;;;;;;;;;;3577260;40;20436;-71
2021/07/13 09:54:51;;;;;;;1.30;0.20;;;;;;;;;;3577210;40;20760;-72
2021/07/13 09:57:18;;;;;;;1.33;0.17;;;;;;;;;;3584247;40;20384;-70
2021/07/13 09:59:45;;;;;;;1.83;0.20;;;;;;;;;;3568072;40;20400;-71
2021/07/13 10:02:15;;;;;;;0.65;0.30;;;;;;;;;;3577955;40;20388;-70
2021/07/13 10:04:41;;;;;;;1.15;0.30;;;;;;;;;;3582719;40;20388;-70
2021/07/13 10:07:08;;;;;;;0.25;0.10;;;;;;;;;;3584123;40;20464;-72
2021/07/13 10:09:37;;;;;;;2.20;0.20;;;;;;;;;;3580680;40;20384;-71
2021/07/13 10:12:07;;;;;;;1.00;0.20;;;;;;;;;;3587002;40;20460;-71
2021/07/13 10:14:33;;;;;;;0.20;0.10;;;;;;;;;;3581975;40;20394;-71
2021/07/13 10:17:01;;;;;;;1.50;0.10;;;;;;;;;;3576937;40;20395;-71
2021/07/13 10:19:30;;;;;;;1.05;0.20;;;;;;;;;;3582997;40;20380;-71
2021/07/13 10:21:57;;;;;;;0.52;0.20;;;20.60;99.90;;;;;;3581483;40;20468;-71
2021/07/13 10:24:24;;;;;;;0.25;0.00;;;;;;;;;;3586130;40;20385;-71
2021/07/13 10:26:51;;;;;;;0.40;0.10;;;;;;;;;;3578212;40;20655;-71
2021/07/13 10:29:40;;;;;;;0.50;0.10;;;;;;;;;;3577127;40;20369;-71
2021/07/13 10:32:07;;;;;;;0.30;0.10;;;;;;;;;;3572624;40;20384;-70
2021/07/13 10:34:48;;;;;;;0.80;0.10;;;;;;;;;;3576978;40;20390;-71
2021/07/13 10:37:25;;;;;;;0.20;0.00;;;;;;;;;;3576724;40;20756;-71
2021/07/13 10:39:52;;;;;;;0.40;0.10;;;;;;;;;;3576832;40;20421;-71
2021/07/13 10:42:37;;;;;;;0.20;0.03;;;;;;;;;;3577000;40;20688;-71
2021/07/13 10:45:12;;;;;;;0.20;0.10;;;;;;;;;;3576754;40;20364;-71
2021/07/13 10:47:55;;;;;;;0.20;0.10;;;;;;;;;;3568721;40;20495;-70
2021/07/13 10:50:36;;;;;;;0.50;0.10;;;;;;;;;;3574733;40;20392;-71
2021/07/13 10:53:03;;;;;;;1.20;0.20;;;;;;;;;;3575685;40;20391;-71
2021/07/13 10:55:46;;;;;;;0.52;0.22;;;;;;;;;;3576990;40;20494;-70
2021/07/13 10:58:37;;;;;;;0.75;0.30;;;;;;;;;;3576640;40;20380;-71
2021/07/13 11:01:07;;;;;;;0.35;0.22;;;;;;;;;;3546846;40;20453;-71
2021/07/13 11:03:51;;;;;;;1.27;0.30;;;;;;;;;;3575267;40;20392;-71
2021/07/13 11:06:19;;;;;;;2.58;0.57;;;;;;;;;;3574638;40;20368;-70
2021/07/13 11:08:52;;;;;;;0.98;0.30;;;;;;;;;;3574381;40;20477;-71
2021/07/13 11:11:36;;;;;;;0.50;0.10;;;;;;;;;;3574998;40;20391;-70
2021/07/13 11:14:03;;;;;;;1.30;0.40;;;;;;;;;;3573580;40;20875;-71
2021/07/13 11:16:30;;;;;;;1.45;0.70;;;;;;;;;;3556093;40;20425;-70
2021/07/13 11:18:57;;;;;;;0.43;0.30;;;;;;;;;;3555956;40;20413;-70
2021/07/13 11:21:27;;;;;;;1.10;0.20;;;;;;;;;;3566931;40;20365;-70
2021/07/13 11:23:54;;;;;;;0.95;0.40;;;;;;;;;;3566386;40;20390;-70
2021/07/13 11:26:22;;;;;;;0.90;0.37;;;;;;;;;;3556542;40;20416;-70
2021/07/13 11:28:48;;;;;;;1.10;0.30;;;;;;;;;;3566448;40;20384;-71
2021/07/13 11:31:19;;;;;;;1.42;0.30;;;;;;;;;;3562937;40;20860;-71
2021/07/13 11:33:52;;;;;;;2.75;0.70;;;;;;;;;;3565116;40;20374;-70
2021/07/13 11:36:26;;;;;;;2.47;1.10;;;;;;;;;;3572655;40;20745;-71
2021/07/13 11:38:52;;;;;;;1.60;0.70;;;;;;;;;;3566206;40;20366;-70
2021/07/13 11:41:22;;;;;;;1.80;0.93;;;;;;;;;;3566152;40;20547;-71
2021/07/13 11:43:51;;;;;;;1.83;1.00;;;;;;;;;;3568113;40;20380;-71
2021/07/13 11:46:18;;;;;;;3.30;0.90;;;;;;;;;;3570445;40;20401;-72
2021/07/13 11:48:55;;;;;;;2.80;0.98;;;25.30;95.80;;;;;;3567317;40;20514;-71
2021/07/13 11:51:26;;;;;;;2.75;0.90;;;;;;;;;;3555724;40;20385;-71
2021/07/13 11:53:59;;;;;;;2.08;0.98;;;;;;;;;;3564130;40;20436;-71
2021/07/13 11:56:26;;;;;;;2.50;1.17;;;;;;;;;;3564661;40;20379;-71
2021/07/13 11:58:52;;;;;;;2.92;1.20;;;;;;;;;;3563227;40;20389;-71
2021/07/13 12:01:21;;;;;;;3.17;1.20;;;;;;;;;;3568515;40;20845;-71
2021/07/13 12:03:47;;;;;;;3.35;1.05;;;;;;;;;;3567627;40;20398;-71
2021/07/13 12:06:15;;;;;;;4.35;1.20;;;;;;;;;;3567402;40;20377;-71
2021/07/13 12:08:42;;;;;;;2.47;1.00;;;;;;;;;;3567487;40;20774;-71
2021/07/13 12:11:10;;;;;;;2.97;1.43;;;28.40;97.20;;;;;;3565674;40;20655;-71
2021/07/13 12:13:37;;;;;;;4.88;1.63;;;26.70;97.20;;;;;;3567561;40;20390;-71
2021/07/13 12:16:17;;;;;;;5.18;1.63;;;26.40;97.60;;;;;;3570173;40;20450;-68
2021/07/13 12:18:43;;;;;;;2.60;1.70;;;26.50;98.40;;;;;;3573536;40;20772;-68
2021/07/13 12:21:13;;;;;;;5.33;1.70;;;26.70;98.50;;;;;;3577313;40;20391;-68
2021/07/13 12:23:40;;;;;;;2.70;1.25;;;27.20;98.60;;;;;;3581590;40;20397;-68
2021/07/13 12:26:30;;;;;;;5.03;1.23;;;;;;;;;;3581073;40;20388;-68
2021/07/13 12:29:00;;;;;;;2.20;1.10;;;;;;;;;;3574136;40;20703;-69
2021/07/13 12:31:26;;;;;;;2.47;1.05;;;;;;;;;;3576244;40;20387;-68
2021/07/13 12:33:52;;;;;;;2.45;1.40;;;;;;;;;;3583003;40;20375;-69
2021/07/13 12:36:26;;;;;;;2.03;0.60;;;27.90;97.20;;;;;;3571899;40;20492;-69
2021/07/13 12:38:52;;;;;;;1.55;0.52;;;28.40;93.50;;;;;;3583203;40;20442;-68
2021/07/13 12:41:20;;;;;;;1.30;0.30;;;28.20;91.50;;;;;;3581322;40;20376;-68
2021/07/13 12:43:48;;;;;;;0.63;0.20;;;;;;;;;;3576569;40;20403;-69
2021/07/13 12:46:27;;;;;;;0.73;0.32;;;;;;;;;;3577571;40;20403;-68
2021/07/13 12:48:54;;;;;;;2.50;0.20;;;27.90;91.40;;;;;;3571404;40;20395;-68
2021/07/13 12:51:24;;;;;;;0.60;0.20;;;27.20;90.20;;;;;;3577388;40;20727;-69
2021/07/13 12:54:03;;;;;;;0.30;0.15;;;;;;;;;;3577193;40;20388;-68
2021/07/13 12:56:30;;;;;;;0.35;0.20;;;;;;;;;;3577368;40;20417;-68
2021/07/13 12:59:05;;;;;;;0.30;0.20;;;;;;;;;;3583733;40;20400;-68
2021/07/13 13:01:32;;;;;;;1.00;0.20;;;;;;;;;;3586301;40;20378;-67
2021/07/13 13:04:09;;;;;;;1.17;0.32;;;;;;;;;;3584479;40;20404;-67
2021/07/13 13:06:36;;;;;;;0.50;0.20;;;;;;;;;;3581450;40;20381;-70
2021/07/13 13:09:07;;;;;;;0.63;0.20;;;;;;;;;;3580004;40;20368;-70
2021/07/13 13:11:34;;;;;;;1.20;0.30;;;26.90;89.50;;;;;;3582703;40;20749;-70
2021/07/13 13:14:02;;;;;;;1.38;0.30;;;;;;;;;;3583227;40;20374;-70
2021/07/13 13:16:31;;;;;;;2.83;0.60;;;;;;;;;;3577587;40;20412;-68
2021/07/13 13:19:01;;;;;;;2.70;0.70;;;24.80;93.30;;;;;;3568063;40;20513;-69
2021/07/13 13:21:28;;;;;;;3.77;0.90;;;;;;;;;;3567302;40;20453;-69
2021/07/13 13:23:55;;;;;;;4.35;0.98;;;;;;;;;;3576912;40;20383;-67
2021/07/13 13:26:22;;;;;;;5.25;1.80;;;;;;;;;;3568000;40;20419;-68
2021/07/13 13:28:48;;;;;;;2.42;0.60;;;;;;;;;;3583383;40;20374;-68
2021/07/13 13:31:14;;;;;;;1.95;0.60;;;23.70;98.70;;;;;;3567621;40;20392;-69
2021/07/13 13:33:43;;;;;;;4.03;0.50;;;20.10;99.90;;;;;;3577048;40;20402;-68
2021/07/13 13:36:16;;;;;;;2.45;0.70;;;19.60;99.90;;;;;;3567912;40;20435;-69
2021/07/13 13:41:11;;;;;;;2.35;0.60;;;19.40;99.90;;;;;;3581508;40;20376;-68
2021/07/13 13:43:37;;;;;;;2.30;0.70;;;19.20;99.90;;;;;;3583868;40;20392;-68
2021/07/13 13:46:04;;;;;;;1.73;1.00;;;18.80;99.90;;;;;;3576903;40;20388;-68
2021/07/13 13:48:30;;;;;;;3.20;0.80;;;18.70;99.90;;;;;;3576885;40;20380;-68
2021/07/13 13:50:58;;;;;;;5.40;0.77;;;;;;;;;;3567568;40;20443;-67
2021/07/13 13:53:24;;;;;;;3.15;1.10;;;;;;;;;;3577111;40;20776;-67
2021/07/13 13:55:50;;;;;;;2.03;1.20;;;;;;;;;;3576773;40;20384;-67
2021/07/13 13:58:16;;;;;;;1.65;0.80;;;;;;;;;;3559325;40;20407;-67
2021/07/13 14:00:42;;;;;;;1.95;0.88;;;;;;;;;;3576617;40;20382;-67
2021/07/13 14:03:09;;;;;;;2.80;0.77;;;;;;;;;;3567512;40;20455;-67
2021/07/13 14:05:35;;;;;;;2.20;0.63;;;;;;;;;;3576932;40;20397;-67
2021/07/13 14:08:03;;;;;;;2.67;0.80;;;;;;;;;;3571630;40;20383;-67
2021/07/13 14:10:29;;;;;;;3.90;0.93;;;;;;;;;;3579377;40;20514;-67
2021/07/13 14:12:56;;;;;;;3.40;0.70;;;;;;;;;;3576730;40;20690;-68
2021/07/13 14:15:22;;;;;;;3.15;0.65;;;;;;;;;;3576576;40;20406;-67
2021/07/13 14:17:48;;;;;;;1.50;0.40;;;;;;;;;;3577850;40;20387;-67
2021/07/13 14:20:16;;;;;;;2.30;0.60;;;;;;;;;;3573019;40;20459;-67
2021/07/13 14:22:42;;;;;;;1.98;0.50;;;;;;;;;;3570511;40;20396;-68
2021/07/13 14:25:11;;;;;;;4.30;0.70;;;;;;;;;;3565748;40;20733;-68
2021/07/13 14:27:37;;;;;;;2.72;0.57;;;;;;;;;;3582526;40;20426;-68
2021/07/13 14:30:03;;;;;;;2.17;0.52;;;;;;;;;;3575449;40;20488;-68
2021/07/13 14:32:30;;;;;;;1.73;0.65;;;;;;;;;;3581569;40;20457;-69
2021/07/13 14:34:56;;;;;;;2.22;0.57;;;;;;;;;;3585799;40;20366;-69
2021/07/13 14:37:22;;;;;;;1.33;0.60;;;;;;;;;;3576682;40;20372;-69
2021/07/13 14:39:48;;;;;;;1.63;0.50;;;;;;;;;;3576665;40;20407;-69
2021/07/13 14:42:16;;;;;;;1.77;0.50;;;;;;;;;;3576591;40;20422;-69